Time;durP1;ratioP1;P1;durP2;ratioP2;P2;SDS_P1;SDS_P2;PMS_P1;PMS_P2;Temp;Humidity;BMP_temperature;BMP_pressure;BME280_temperature;BME280_humidity;BME280_pressure;Samples;Min_cycle;Max_cycle;Signal;HPM_P1;HPM_P2
2023/08/24 00:00:16;;;;;;;7.85;5.30;;;;;;;19.19;100.00;101801.03;4997841;28;20061;-73
2023/08/24 00:02:42;;;;;;;7.97;6.53;;;;;;;19.14;100.00;101799.41;4998838;28;21448;-73
2023/08/24 00:05:07;;;;;;;9.30;5.93;;;;;;;19.12;100.00;101798.22;5002905;28;20017;-74
2023/08/24 00:07:32;;;;;;;6.10;4.78;;;;;;;19.14;100.00;101793.72;4994617;28;20065;-73
2023/08/24 00:09:58;;;;;;;9.80;5.25;;;;;;;19.13;100.00;101779.97;4998948;28;20038;-73
2023/08/24 00:12:23;;;;;;;10.18;5.65;;;;;;;18.88;100.00;101778.88;5012622;23;20017;-79
2023/08/24 00:14:49;;;;;;;7.47;4.97;;;;;;;18.93;100.00;101766.31;4985758;28;20038;-79
2023/08/24 00:17:14;;;;;;;11.07;5.53;;;;;;;18.91;100.00;101763.09;4984706;28;20029;-78
2023/08/24 00:19:40;;;;;;;7.07;4.50;;;;;;;19.07;100.00;101765.41;4991418;28;20068;-79
2023/08/24 00:22:05;;;;;;;10.50;5.70;;;;;;;18.87;100.00;101768.78;4992587;28;20116;-78
2023/08/24 00:24:31;;;;;;;8.52;5.57;;;;;;;18.91;100.00;101756.59;4991893;28;20121;-78
2023/08/24 00:26:56;;;;;;;8.43;5.30;;;;;;;18.80;100.00;101757.47;4988781;28;20041;-79
2023/08/24 00:29:22;;;;;;;8.32;6.18;;;;;;;18.79;100.00;101755.84;4991549;28;20034;-78
2023/08/24 00:31:47;;;;;;;8.05;5.28;;;;;;;18.84;100.00;101749.75;4983640;28;20044;-78
2023/08/24 00:34:13;;;;;;;6.25;5.25;;;;;;;18.75;100.00;101743.69;4990183;28;20030;-78
2023/08/24 00:36:38;;;;;;;10.55;6.03;;;;;;;18.68;100.00;101738.06;4985674;28;20733;-78
2023/08/24 00:39:04;;;;;;;7.70;5.50;;;;;;;18.75;100.00;101737.22;4989624;28;20497;-78
2023/08/24 00:41:29;;;;;;;7.80;4.82;;;;;;;18.80;100.00;101737.59;4988069;28;20057;-78
2023/08/24 00:43:55;;;;;;;8.10;4.85;;;;;;;18.70;100.00;101735.63;4989787;28;20026;-79
2023/08/24 00:46:22;;;;;;;7.85;5.53;;;;;;;18.80;100.00;101746.13;5005496;28;20061;-78
2023/08/24 00:48:57;;;;;;;8.73;5.10;;;;;;;18.81;100.00;101742.06;5003243;28;20433;-78
2023/08/24 00:51:24;;;;;;;8.23;5.40;;;;;;;18.72;100.00;101750.22;4986164;28;20071;-78
2023/08/24 00:53:50;;;;;;;8.93;5.47;;;;;;;18.76;100.00;101748.13;4988219;28;20033;-78
2023/08/24 00:56:15;;;;;;;8.07;5.25;;;;;;;18.79;100.00;101750.19;4988716;28;20112;-78
2023/08/24 00:58:42;;;;;;;6.07;4.75;;;;;;;18.80;100.00;101743.28;5006876;28;20036;-77
2023/08/24 01:01:07;;;;;;;7.88;5.13;;;;;;;18.80;100.00;101729.09;4988531;28;20496;-77
2023/08/24 01:03:33;;;;;;;9.18;5.25;;;;;;;18.70;100.00;101718.63;4993804;28;20022;-77
2023/08/24 01:05:58;;;;;;;5.82;4.22;;;;;;;18.69;100.00;101725.50;4990543;28;20104;-78
2023/08/24 01:08:24;;;;;;;8.52;5.00;;;;;;;18.65;100.00;101716.19;4989559;28;20486;-77
2023/08/24 01:11:07;;;;;;;6.88;4.25;;;;;;;18.74;100.00;101719.41;4990317;28;20030;-77
2023/08/24 01:13:59;;;;;;;7.15;5.03;;;;;;;18.64;100.00;101715.41;4995657;28;20030;-76
2023/08/24 01:16:27;;;;;;;8.60;5.50;;;;;;;18.72;100.00;101721.84;4990250;28;20041;-77
2023/08/24 01:18:57;;;;;;;8.73;5.22;;;;;;;18.71;100.00;101720.22;4997939;28;20057;-77
2023/08/24 01:21:23;;;;;;;7.05;4.50;;;;;;;18.75;100.00;101715.34;5000620;28;20062;-76
2023/08/24 01:24:19;;;;;;;6.15;4.75;;;;;;;18.72;100.00;101709.66;4997724;28;20037;-77
2023/08/24 01:26:48;;;;;;;6.32;4.07;;;;;;;18.73;100.00;101712.09;4990751;28;20406;-77
2023/08/24 01:29:13;;;;;;;9.40;4.68;;;;;;;18.79;100.00;101721.81;4990378;28;20073;-77
2023/08/24 01:31:39;;;;;;;8.30;4.70;;;;;;;18.75;100.00;101715.34;4988805;28;20033;-78
2023/08/24 01:34:04;;;;;;;8.63;4.47;;;;;;;18.76;100.00;101721.81;4991054;28;20598;-77
2023/08/24 01:36:30;;;;;;;8.57;5.43;;;;;;;18.69;100.00;101711.31;4992335;28;20122;-77
2023/08/24 01:39:11;;;;;;;6.20;4.47;;;;;;;18.71;100.00;101710.91;4992945;28;20056;-77
2023/08/24 01:41:42;;;;;;;8.00;4.63;;;;;;;18.70;100.00;101704.44;4988082;28;20088;-77
2023/08/24 01:44:12;;;;;;;7.03;4.60;;;;;;;18.69;100.00;101711.31;4991460;28;20041;-77
2023/08/24 01:46:39;;;;;;;7.38;4.55;;;;;;;18.80;100.00;101702.78;4986035;28;20391;-77
2023/08/24 01:49:07;;;;;;;5.63;4.50;;;;;;;18.76;100.00;101688.56;4987631;28;20041;-77
2023/08/24 01:51:34;;;;;;;4.85;4.35;;;;;;;18.74;100.00;101696.72;4993606;28;20053;-77
2023/08/24 01:54:00;;;;;;;8.32;5.47;;;;;;;18.71;100.00;101702.41;4996024;28;20649;-77
2023/08/24 01:56:26;;;;;;;6.47;3.83;;;;;;;18.77;100.00;101709.25;4991413;28;22005;-77
2023/08/24 01:58:51;;;;;;;5.57;4.15;;;;;;;18.77;100.00;101712.09;5004694;28;20040;-76
2023/08/24 02:01:16;;;;;;;10.32;4.13;;;;;;;18.78;100.00;101714.53;4990881;28;20052;-78
2023/08/24 02:03:42;;;;;;;6.88;4.93;;;;;;;18.74;100.00;101719.41;4990233;28;20054;-77
2023/08/24 02:06:08;;;;;;;7.80;4.28;;;;;;;18.76;100.00;101714.09;4996411;28;20037;-77
2023/08/24 02:08:33;;;;;;;6.88;4.50;;;;;;;18.81;100.00;101707.22;4996930;28;20037;-78
2023/08/24 02:10:59;;;;;;;9.52;5.10;;;;;;;18.74;100.00;101708.06;4993486;28;20367;-78
2023/08/24 02:13:24;;;;;;;6.97;4.95;;;;;;;18.62;100.00;101719.88;4996055;28;20655;-77
2023/08/24 02:15:49;;;;;;;7.68;4.70;;;;;;;18.69;100.00;101728.34;4990435;28;20040;-78
2023/08/24 02:18:15;;;;;;;7.50;4.90;;;;;;;18.62;100.00;101708.53;4994521;28;20416;-78
2023/08/24 02:20:40;;;;;;;8.80;4.97;;;;;;;18.68;100.00;101712.56;4991679;28;20269;-78
2023/08/24 02:23:06;;;;;;;7.43;4.75;;;;;;;18.63;100.00;101707.28;5000144;28;20388;-78
2023/08/24 02:25:31;;;;;;;8.32;4.65;;;;;;;18.75;100.00;101700.34;4990659;28;20034;-78
2023/08/24 02:27:57;;;;;;;6.65;4.50;;;;;;;18.67;100.00;101688.25;4993139;28;20030;-78
2023/08/24 02:30:22;;;;;;;9.32;5.40;;;;;;;18.63;100.00;101691.09;4988752;28;20038;-77
2023/08/24 02:32:48;;;;;;;6.32;4.45;;;;;;;18.63;100.00;101678.94;4988228;28;20026;-78
2023/08/24 02:35:13;;;;;;;7.53;4.75;;;;;;;18.66;100.00;101678.13;4989080;28;20041;-78
2023/08/24 02:37:39;;;;;;;7.07;5.00;;;;;;;18.61;100.00;101685.03;4988988;28;20026;-78
2023/08/24 02:40:05;;;;;;;8.98;4.97;;;;;;;18.52;100.00;101683.88;4990511;28;20480;-78
2023/08/24 02:42:31;;;;;;;6.03;4.28;;;;;;;18.47;100.00;101676.63;4988052;28;20481;-78
2023/08/24 02:44:57;;;;;;;8.23;5.75;;;;;;;18.45;100.00;101679.88;4989044;28;20022;-78
2023/08/24 02:47:22;;;;;;;7.72;3.92;;;;;;;18.61;100.00;101687.06;4988183;28;20448;-78
2023/08/24 02:49:48;;;;;;;6.78;5.28;;;;;;;18.49;100.00;101677.03;4989887;28;20042;-77
2023/08/24 02:52:13;;;;;;;5.47;4.57;;;;;;;18.62;100.00;101674.50;4986484;28;20026;-77
2023/08/24 02:54:38;;;;;;;8.68;4.57;;;;;;;18.62;100.00;101668.84;4991365;28;20030;-78
2023/08/24 02:57:04;;;;;;;12.82;5.28;;;;;;;18.61;100.00;101664.38;4990842;28;20088;-78
2023/08/24 02:59:29;;;;;;;11.15;6.07;;;;;;;18.56;100.00;101659.16;4985339;28;20063;-78
2023/08/24 03:01:58;;;;;;;5.82;4.38;;;;;;;18.56;100.00;101656.31;4995130;28;20030;-78
2023/08/24 03:04:23;;;;;;;8.10;5.30;;;;;;;18.51;100.00;101665.25;4985044;28;20386;-77
2023/08/24 03:06:49;;;;;;;7.05;5.03;;;;;;;18.56;100.00;101665.63;4991349;28;20035;-77
2023/08/24 03:09:14;;;;;;;8.27;4.93;;;;;;;18.56;100.00;101653.47;4996253;28;20022;-78
2023/08/24 03:11:40;;;;;;;8.50;5.28;;;;;;;18.60;100.00;101659.94;4991922;28;20504;-78
2023/08/24 03:14:06;;;;;;;5.82;4.05;;;;;;;18.61;100.00;101655.88;4998283;28;20156;-78
2023/08/24 03:16:31;;;;;;;5.20;4.53;;;;;;;18.54;100.00;101658.75;4993769;28;20116;-77
2023/08/24 03:18:56;;;;;;;7.10;4.47;;;;;;;18.40;100.00;101660.44;4990224;28;20028;-78
2023/08/24 03:21:22;;;;;;;7.65;4.78;;;;;;;18.36;100.00;101665.34;4990142;28;20446;-77
2023/08/24 03:23:47;;;;;;;7.20;5.32;;;;;;;18.43;100.00;101673.78;4997046;28;20489;-76
2023/08/24 03:26:13;;;;;;;7.03;4.13;;;;;;;18.52;100.00;101673.34;4986512;28;20034;-77
2023/08/24 03:28:38;;;;;;;7.95;4.70;;;;;;;18.54;100.00;101665.22;5003804;28;20399;-77
2023/08/24 03:31:06;;;;;;;6.43;4.28;;;;;;;18.59;100.00;101667.63;4994045;28;20136;-77
2023/08/24 03:33:33;;;;;;;7.32;4.78;;;;;;;18.56;100.00;101665.63;4993721;28;20076;-77
2023/08/24 03:35:58;;;;;;;5.93;5.15;;;;;;;18.47;100.00;101653.94;4993428;28;20591;-78
2023/08/24 03:38:23;;;;;;;6.43;4.90;;;;;;;18.55;100.00;101649.03;5001845;28;20037;-78
2023/08/24 03:40:49;;;;;;;7.30;4.78;;;;;;;18.52;100.00;101627.97;4995213;28;20036;-77
2023/08/24 03:43:14;;;;;;;7.38;4.82;;;;;;;18.46;100.00;101618.31;4990850;28;20022;-78
2023/08/24 03:45:42;;;;;;;7.35;4.97;;;;;;;18.45;100.00;101628.84;4997250;28;20429;-77
2023/08/24 03:48:07;;;;;;;8.02;5.07;;;;;;;18.35;100.00;101624.03;4995730;28;20033;-78
2023/08/24 03:50:32;;;;;;;7.20;4.38;;;;;;;18.42;100.00;101623.97;4990280;28;20033;-77
2023/08/24 03:52:58;;;;;;;7.15;4.43;;;;;;;18.43;100.00;101617.09;4992922;28;20502;-77
2023/08/24 03:55:23;;;;;;;6.35;4.88;;;;;;;18.43;100.00;101619.94;4994983;28;20053;-77
2023/08/24 03:57:49;;;;;;;7.15;5.13;;;;;;;18.41;100.00;101616.72;4995155;28;20029;-77
2023/08/24 04:00:14;;;;;;;6.18;5.40;;;;;;;18.29;100.00;101614.34;4998187;28;20080;-77
2023/08/24 04:02:41;;;;;;;8.50;5.13;;;;;;;18.24;100.00;101606.28;4989257;28;20037;-77
2023/08/24 04:05:06;;;;;;;7.22;4.50;;;;;;;18.26;100.00;101610.31;4994226;28;20029;-77
2023/08/24 04:07:33;;;;;;;10.20;5.32;;;;;;;18.25;100.00;101607.91;4997524;28;20038;-77
2023/08/24 04:09:58;;;;;;;7.22;5.40;;;;;;;18.20;100.00;101599.84;4995313;28;20033;-77
2023/08/24 04:12:23;;;;;;;8.07;4.55;;;;;;;18.23;100.00;101599.00;4991139;28;20512;-77
2023/08/24 04:14:49;;;;;;;5.07;4.38;;;;;;;18.26;100.00;101604.66;4996325;28;20052;-77
2023/08/24 04:17:15;;;;;;;9.50;4.60;;;;;;;18.22;100.00;101606.69;4994472;28;20045;-76
2023/08/24 04:19:40;;;;;;;8.82;5.88;;;;;;;18.12;100.00;101615.25;4998012;28;20037;-77
2023/08/24 04:22:05;;;;;;;6.82;4.53;;;;;;;18.20;100.00;101619.69;4990990;28;20088;-77
2023/08/24 04:24:31;;;;;;;7.93;5.15;;;;;;;18.19;100.00;101616.00;4992656;28;20033;-76
2023/08/24 04:26:56;;;;;;;8.50;5.10;;;;;;;18.22;100.00;101620.88;4995993;28;20548;-78
2023/08/24 04:29:22;;;;;;;6.15;4.18;;;;;;;18.16;100.00;101618.88;4991760;28;20018;-77
2023/08/24 04:31:47;;;;;;;6.32;4.55;;;;;;;18.14;100.00;101610.00;4988246;28;20090;-78
2023/08/24 04:34:12;;;;;;;6.28;4.93;;;;;;;18.06;100.00;101609.22;4990792;28;20037;-78
2023/08/24 04:36:38;;;;;;;11.25;5.53;;;;;;;18.09;100.00;101611.22;4987623;28;20220;-78
2023/08/24 04:39:03;;;;;;;8.45;5.45;;;;;;;18.03;100.00;101610.06;4993514;28;20060;-78
2023/08/24 04:41:28;;;;;;;9.23;5.30;;;;;;;18.07;100.00;101605.97;4988180;28;20022;-78
2023/08/24 04:43:54;;;;;;;9.55;4.85;;;;;;;18.07;100.00;101614.47;4990593;28;20117;-78
2023/08/24 04:46:20;;;;;;;6.25;4.43;;;;;;;18.13;100.00;101616.88;4984257;28;20035;-77
2023/08/24 04:48:45;;;;;;;8.75;5.22;;;;;;;18.09;100.00;101622.56;4990067;28;20547;-77
2023/08/24 04:51:10;;;;;;;6.97;4.90;;;;;;;18.10;100.00;101618.50;4987672;28;20041;-76
2023/08/24 04:53:36;;;;;;;9.98;5.03;;;;;;;18.13;100.00;101629.03;4992370;28;20021;-77
2023/08/24 04:56:01;;;;;;;8.98;5.80;;;;;;;18.10;100.00;101617.69;4990071;28;20065;-77
2023/08/24 04:58:27;;;;;;;5.57;4.68;;;;;;;18.04;100.00;101620.94;4997070;28;20029;-78
2023/08/24 05:00:52;;;;;;;6.50;4.72;;;;;;;18.07;100.00;101620.13;4994319;28;20532;-77
2023/08/24 05:03:19;;;;;;;7.55;4.78;;;;;;;18.10;100.00;101623.38;4997735;28;20549;-77
2023/08/24 05:05:44;;;;;;;10.98;6.30;;;;;;;18.01;100.00;101627.44;4991420;28;20076;-77
2023/08/24 05:08:10;;;;;;;7.57;5.50;;;;;;;18.01;100.00;101621.78;4998483;28;20021;-77
2023/08/24 05:10:36;;;;;;;9.07;5.40;;;;;;;18.01;100.00;101624.63;4996143;28;20117;-77
2023/08/24 05:13:02;;;;;;;12.05;5.35;;;;;;;18.05;100.00;101628.25;4997593;28;20050;-77
2023/08/24 05:15:28;;;;;;;10.85;5.20;;;;;;;18.06;100.00;101610.00;4997313;28;20045;-77
2023/08/24 05:17:55;;;;;;;8.73;5.05;;;;;;;18.10;100.00;101612.03;4991901;28;20034;-77
2023/08/24 05:20:22;;;;;;;9.63;6.00;;;;;;;18.04;100.00;101609.63;5000371;28;20037;-77
2023/08/24 05:22:47;;;;;;;10.27;5.47;;;;;;;17.95;100.00;101614.94;5003007;28;20026;-77
2023/08/24 05:25:13;;;;;;;9.00;5.32;;;;;;;17.99;100.00;101609.25;4993706;28;20168;-77
2023/08/24 05:27:39;;;;;;;8.38;5.53;;;;;;;17.96;100.00;101608.06;4998717;28;20036;-77
2023/08/24 05:30:06;;;;;;;12.05;6.60;;;;;;;17.99;100.00;101612.09;4998819;28;20026;-78
2023/08/24 05:32:32;;;;;;;12.52;5.95;;;;;;;18.03;100.00;101599.53;4995890;28;20034;-77
2023/08/24 05:34:57;;;;;;;10.68;6.57;;;;;;;17.87;100.00;101599.19;4999391;28;20030;-77
2023/08/24 05:37:24;;;;;;;8.48;5.93;;;;;;;17.89;100.00;101599.56;4999829;28;20041;-77
2023/08/24 05:39:49;;;;;;;8.70;6.10;;;;;;;17.95;100.00;101591.47;4995747;28;20037;-78
2023/08/24 05:42:15;;;;;;;6.75;5.13;;;;;;;18.05;100.00;101582.91;4994882;28;20032;-79
2023/08/24 05:44:40;;;;;;;5.97;4.82;;;;;;;18.05;100.00;101587.78;4990148;28;20045;-79
2023/08/24 05:47:05;;;;;;;11.65;7.43;;;;;;;17.99;100.00;101578.09;4988815;28;20036;-81
2023/08/24 05:49:31;;;;;;;8.60;6.25;;;;;;;18.14;100.00;101582.47;5007453;28;20026;-80
2023/08/24 05:51:56;;;;;;;10.82;6.93;;;;;;;18.22;100.00;101580.41;4998962;28;20033;-80
2023/08/24 05:54:22;;;;;;;12.80;6.18;;;;;;;18.20;100.00;101572.31;5004238;28;20042;-81
2023/08/24 05:56:48;;;;;;;9.57;5.78;;;;;;;18.31;100.00;101572.25;4997731;28;20031;-80
2023/08/24 05:59:14;;;;;;;10.45;6.15;;;;;;;17.83;100.00;101587.06;4996305;28;20417;-80
2023/08/24 06:01:41;;;;;;;8.60;6.32;;;;;;;18.05;100.00;101571.59;5001605;28;20106;-80
2023/08/24 06:04:06;;;;;;;10.52;6.38;;;;;;;17.96;100.00;101576.91;4996025;28;20028;-80
2023/08/24 06:06:32;;;;;;;13.60;5.63;;;;;;;18.22;100.00;101578.38;5000273;28;20034;-80
2023/08/24 06:08:58;;;;;;;9.38;7.53;;;;;;;18.07;100.00;101571.97;4997521;28;20037;-80
2023/08/24 06:11:23;;;;;;;7.10;5.53;;;;;;;18.14;100.00;101561.81;5001505;28;20080;-81
2023/08/24 06:13:49;;;;;;;10.00;6.53;;;;;;;18.20;100.00;101560.97;5008672;28;20564;-80
2023/08/24 06:16:14;;;;;;;9.40;6.55;;;;;;;18.21;100.00;101561.78;4995574;28;20121;-80
2023/08/24 06:18:41;;;;;;;7.05;4.68;;;;;;;18.54;100.00;101556.69;4997265;28;20135;-80
2023/08/24 06:21:08;;;;;;;7.25;5.03;;;;;;;18.60;100.00;101564.34;5002978;28;20058;-80
2023/08/24 06:23:33;;;;;;;6.82;5.05;;;;;;;18.82;100.00;101556.47;4999801;28;20041;-80
2023/08/24 06:25:59;;;;;;;10.80;6.25;;;;;;;18.55;100.00;101553.47;4999780;28;20033;-80
2023/08/24 06:28:24;;;;;;;9.18;5.43;;;;;;;18.54;100.00;101553.88;4999589;28;20032;-81
2023/08/24 06:30:49;;;;;;;8.73;5.50;;;;;;;18.60;100.00;101546.53;5001164;28;20806;-80
2023/08/24 06:33:17;;;;;;;10.25;6.40;;;;;;;18.49;100.00;101527.56;5000092;28;20030;-80
2023/08/24 06:35:42;;;;;;;8.60;4.50;;;;;;;18.85;100.00;101535.00;4996196;28;20038;-80
2023/08/24 06:38:08;;;;;;;6.72;4.40;;;;;;;19.27;100.00;101528.06;4999496;28;20049;-80
2023/08/24 06:40:33;;;;;;;13.50;6.57;;;;;;;19.25;100.00;101527.69;4997212;28;20156;-80
2023/08/24 06:42:59;;;;;;;7.32;4.22;;;;;;;19.89;100.00;101511.09;4994691;28;20100;-80
2023/08/24 06:45:24;;;;;;;8.95;5.32;;;;;;;19.43;100.00;101510.44;4999262;28;20076;-79
2023/08/24 06:47:51;;;;;;;11.68;5.63;;;;;;;19.24;100.00;101503.34;5003890;28;20030;-80
2023/08/24 06:50:16;;;;;;;12.07;6.35;;;;;;;19.33;100.00;101500.00;4994201;28;20040;-80
2023/08/24 06:52:42;;;;;;;12.13;7.20;;;;;;;19.16;100.00;101501.03;4990575;28;20162;-79
2023/08/24 06:55:11;;;;;;;6.82;4.90;;;;;;;19.57;100.00;101497.31;4999971;28;20028;-80
2023/08/24 06:57:37;;;;;;;12.27;8.38;;;;;;;18.97;100.00;101503.25;4996694;28;20026;-80
2023/08/24 07:00:07;;;;;;;11.18;7.00;;;;;;;18.77;100.00;101483.16;5001280;28;20030;-78
2023/08/24 07:02:33;;;;;;;8.15;5.25;;;;;;;19.46;100.00;101483.25;4993295;28;20026;-79
2023/08/24 07:04:59;;;;;;;11.27;7.47;;;;;;;19.14;100.00;101475.09;4995914;28;20375;-79
2023/08/24 07:07:25;;;;;;;8.50;4.25;;;;;;;19.15;100.00;101477.53;4997196;28;20029;-78
2023/08/24 07:09:50;;;;;;;6.70;5.50;;;;;;;18.97;100.00;101482.59;4995355;28;20506;-80
2023/08/24 07:12:16;;;;;;;10.45;6.97;;;;;;;18.91;100.00;101475.75;4994667;28;20061;-78
2023/08/24 07:14:41;;;;;;;9.15;5.55;;;;;;;19.14;100.00;101469.44;4989636;28;20037;-82
2023/08/24 07:17:06;;;;;;;8.07;5.63;;;;;;;19.58;100.00;101470.50;4996321;28;20105;-81
2023/08/24 07:19:32;;;;;;;12.57;7.25;;;;;;;19.18;100.00;101458.84;5000793;28;20033;-79
2023/08/24 07:21:58;;;;;;;7.13;5.15;;;;;;;19.65;100.00;101474.06;4992276;28;20121;-82
2023/08/24 07:24:26;;;;;;;13.45;8.13;;;;;;;19.61;100.00;101467.63;4997918;28;20216;-82
2023/08/24 07:26:52;;;;;;;7.60;4.22;;;;;;;20.52;100.00;101470.72;4998685;28;20049;-82
2023/08/24 07:29:19;;;;;;;11.45;7.55;;;;;;;20.21;100.00;101473.66;4998730;28;20472;-81
2023/08/24 07:31:44;;;;;;;8.45;5.45;;;;;;;20.70;100.00;101459.03;4996287;28;20030;-82
2023/08/24 07:34:10;;;;;;;9.38;5.72;;;;;;;20.87;100.00;101469.31;4996694;28;20042;-83
2023/08/24 07:36:35;;;;;;;6.22;3.72;;;;;;;20.94;100.00;101473.25;4988491;28;20034;-81
2023/08/24 07:39:00;;;;;;;7.13;4.13;;;;;;;20.38;100.00;101471.75;4982235;28;20195;-81
2023/08/24 07:41:26;;;;;;;9.15;5.43;;;;;;;20.42;100.00;101466.03;4994121;28;20382;-81
2023/08/24 07:47:13;;;;;;;12.52;7.22;;;;;;;20.37;100.00;101472.22;4992142;28;20132;-81
2023/08/24 07:49:44;;;;;;;3.67;3.30;;;;;;;21.01;100.00;101470.25;4993017;28;20453;-81
2023/08/24 07:52:11;;;;;;;9.32;3.85;;;;;;;21.11;100.00;101472.09;4994967;28;20141;-78
2023/08/24 07:54:36;;;;;;;6.10;4.20;;;;;;;21.28;100.00;101465.22;4987576;28;20026;-79
2023/08/24 07:57:02;;;;;;;5.15;3.67;;;;;;;21.52;100.00;101463.16;4989234;28;20465;-78
2023/08/24 07:59:27;;;;;;;7.70;4.47;;;;;;;21.56;100.00;101463.03;4992628;28;20025;-79
2023/08/24 08:01:52;;;;;;;5.90;4.60;;;;;;;21.36;100.00;101482.97;4991087;28;20429;-79
2023/08/24 08:04:18;;;;;;;8.73;4.65;;;;;;;21.39;100.00;101482.09;5000443;28;20030;-79
2023/08/24 08:06:43;;;;;;;5.43;4.47;;;;;;;21.33;100.00;101483.84;4997225;28;20048;-80
2023/08/24 08:09:08;;;;;;;8.95;6.00;;;;;;;21.58;100.00;101483.34;4997060;28;20034;-80
2023/08/24 08:11:34;;;;;;;7.28;4.97;;;;;;;21.30;100.00;101485.53;4999556;28;20029;-80
2023/08/24 08:14:00;;;;;;;9.00;4.45;;;;;;;21.40;100.00;101477.19;4996349;28;20198;-79
2023/08/24 08:16:25;;;;;;;11.32;6.63;;;;;;;21.34;100.00;101467.59;5002204;28;20081;-78
2023/08/24 08:18:51;;;;;;;8.52;4.80;;;;;;;21.42;100.00;101474.75;5002496;28;20493;-79
2023/08/24 08:21:17;;;;;;;7.38;5.85;;;;;;;21.43;100.00;101474.31;5000516;28;20030;-79
2023/08/24 08:23:44;;;;;;;8.18;4.07;;;;;;;21.56;100.00;101457.34;4992535;28;20037;-81
2023/08/24 08:26:10;;;;;;;6.60;3.45;;;;;;;21.71;100.00;101452.97;4993405;28;20077;-81
2023/08/24 08:28:36;;;;;;;8.70;4.13;;;;;;;21.72;100.00;101450.91;5001391;28;20041;-81
2023/08/24 08:31:02;;;;;;;18.02;4.97;;;;;;;21.78;100.00;101459.72;5003768;28;20022;-81
2023/08/24 08:33:28;;;;;;;8.63;4.70;;;;;;;21.97;100.00;101456.03;5001810;28;20045;-82
2023/08/24 08:35:53;;;;;;;5.85;3.92;;;;;;;22.08;100.00;101450.84;4999014;28;20061;-82
2023/08/24 08:38:21;;;;;;;7.05;2.97;;;;;;;22.20;100.00;101442.84;5000140;28;20032;-82
2023/08/24 08:40:50;;;;;;;12.77;4.32;;;;;;;22.32;100.00;101433.59;4998586;28;20112;-82
2023/08/24 08:43:15;;;;;;;6.80;3.90;;;;;;;22.42;99.25;101431.72;5002207;28;20033;-81
2023/08/24 08:45:40;;;;;;;8.07;3.88;;;;;;;22.33;100.00;101430.31;5002819;28;20030;-82
2023/08/24 08:48:08;;;;;;;7.78;3.28;;;;;;;22.50;98.58;101427.44;5002612;28;20096;-82
2023/08/24 08:50:35;;;;;;;8.02;3.50;;;;;;;22.53;98.50;101418.78;4995053;28;20492;-81
2023/08/24 08:53:01;;;;;;;5.28;3.45;;;;;;;22.57;97.97;101429.31;4994216;28;20026;-81
2023/08/24 08:55:28;;;;;;;8.60;4.60;;;;;;;22.54;98.78;101422.44;4994420;28;20030;-82
2023/08/24 08:57:58;;;;;;;6.28;3.22;;;;;;;22.69;97.28;101422.88;4999816;28;20592;-82
2023/08/24 09:00:24;;;;;;;8.73;4.13;;;;;;;22.71;97.40;101420.34;4989867;28;20867;-81
2023/08/24 09:02:52;;;;;;;4.80;3.45;;;;;;;22.73;97.41;101417.84;4997841;28;20761;-80
2023/08/24 09:05:19;;;;;;;5.20;3.75;;;;;;;22.72;96.90;101419.88;4999067;28;20034;-82
2023/08/24 09:07:47;;;;;;;11.32;7.47;;;;;;;22.76;99.39;101421.84;5002160;28;20445;-82
2023/08/24 09:10:12;;;;;;;6.45;3.15;;;;;;;22.77;97.32;101435.69;4999651;28;20022;-82
2023/08/24 09:12:38;;;;;;;5.78;4.45;;;;;;;22.77;96.75;101449.13;5002356;28;20099;-87
2023/08/24 09:15:06;;;;;;;10.48;7.35;;;;;;;22.70;98.08;101436.66;5003436;28;20026;-86
2023/08/24 09:17:33;;;;;;;6.25;3.55;;;;;;;22.73;97.74;101435.78;4999010;28;20498;-87
2023/08/24 09:20:06;;;;;;;7.53;5.90;;;;;;;22.77;97.60;101417.75;5003411;28;20086;-86
2023/08/24 09:22:36;;;;;;;7.45;5.43;;;;;;;22.69;97.89;101412.25;5001014;28;20030;-87
2023/08/24 09:25:03;;;;;;;6.75;4.38;;;;;;;22.66;97.84;101400.91;5010996;28;20785;-86
2023/08/24 09:27:29;;;;;;;14.48;7.03;;;;;;;22.71;98.49;101388.97;5000305;28;20458;-89
2023/08/24 09:29:54;;;;;;;7.90;5.88;;;;;;;22.79;97.97;101370.41;5005213;28;20034;-88
2023/08/24 09:32:24;;;;;;;13.05;9.05;;;;;;;22.85;98.32;101362.06;4996828;28;20034;-87
2023/08/24 09:34:50;;;;;;;11.63;8.80;;;;;;;22.82;98.23;101355.22;5006175;28;20018;-88
2023/08/24 09:37:16;;;;;;;10.80;7.85;;;;;;;22.81;98.21;101359.34;5005484;28;20041;-88
2023/08/24 09:39:42;;;;;;;8.05;5.35;;;;;;;22.76;98.76;101362.72;5006119;28;20044;-88
2023/08/24 09:42:07;;;;;;;14.43;8.57;;;;;;;22.78;98.53;101379.41;5002839;28;20040;-88
2023/08/24 09:44:33;;;;;;;15.82;9.60;;;;;;;22.73;100.00;101361.59;5005759;28;20033;-88
2023/08/24 09:46:59;;;;;;;13.13;8.85;;;;;;;22.80;100.00;101365.50;5005871;28;20179;-89
2023/08/24 09:49:26;;;;;;;16.33;8.63;;;;;;;22.76;99.50;101357.00;5000742;28;20029;-88
2023/08/24 09:51:55;;;;;;;10.63;7.38;;;;;;;22.89;98.90;101354.19;5003556;28;20030;-88
2023/08/24 09:54:25;;;;;;;10.65;6.78;;;;;;;22.83;98.87;101358.84;4995417;28;20109;-89
2023/08/24 09:56:52;;;;;;;14.90;8.85;;;;;;;22.80;99.01;101360.56;5003205;28;20037;-88
2023/08/24 09:59:18;;;;;;;15.40;10.57;;;;;;;22.82;100.00;101351.56;5002391;28;20508;-89
2023/08/24 10:01:48;;;;;;;13.38;7.80;;;;;;;22.86;100.00;101341.63;5006393;28;20037;-88
2023/08/24 10:04:37;;;;;;;12.07;6.85;;;;;;;22.82;100.00;101329.53;5000941;28;20040;-89
2023/08/24 10:07:20;;;;;;;10.55;8.10;;;;;;;22.82;100.00;101308.75;5012895;28;20041;-87
2023/08/24 10:09:55;;;;;;;14.38;9.25;;;;;;;22.81;99.44;101319.38;5009996;28;20040;-88
2023/08/24 10:12:26;;;;;;;14.82;8.50;;;;;;;22.76;100.00;101314.22;5008365;28;20033;-88
2023/08/24 10:15:06;;;;;;;12.20;8.35;;;;;;;22.81;100.00;101304.28;5009023;28;20042;-88
2023/08/24 10:17:33;;;;;;;11.45;7.82;;;;;;;22.75;100.00;101301.22;5010681;28;20116;-88
2023/08/24 10:20:08;;;;;;;9.73;6.68;;;;;;;22.76;100.00;101302.00;5016529;28;20034;-87
2023/08/24 10:22:35;;;;;;;13.65;8.30;;;;;;;22.73;100.00;101315.13;5004164;28;20056;-88
2023/08/24 10:25:02;;;;;;;11.80;8.35;;;;;;;22.74;100.00;101299.59;5005952;28;20080;-87
2023/08/24 10:27:28;;;;;;;5.22;3.47;;;;;;;22.76;100.00;101299.94;5006512;28;20037;-89
2023/08/24 10:29:53;;;;;;;8.32;5.13;;;;;;;22.83;100.00;101281.81;5007067;28;20038;-89
2023/08/24 10:32:21;;;;;;;13.07;9.60;;;;;;;22.86;100.00;101286.63;5008729;28;20089;-85
2023/08/24 10:34:46;;;;;;;7.18;5.38;;;;;;;22.90;100.00;101293.03;5010448;28;20302;-85
2023/08/24 10:37:12;;;;;;;7.75;4.25;;;;;;;22.90;100.00;101288.09;5001129;28;20038;-85
2023/08/24 10:39:44;;;;;;;9.65;6.35;;;;;;;22.85;100.00;101285.81;4999680;28;20034;-85
2023/08/24 10:42:13;;;;;;;8.60;4.78;;;;;;;22.79;100.00;101284.78;5000613;28;20030;-87
2023/08/24 10:44:43;;;;;;;12.20;8.20;;;;;;;22.76;100.00;101285.69;5008432;28;20061;-89
2023/08/24 10:47:14;;;;;;;5.85;4.68;;;;;;;22.74;100.00;101286.13;5002404;28;20057;-88
2023/08/24 10:49:52;;;;;;;14.05;9.50;;;;;;;22.82;100.00;101286.72;5011748;28;20022;-87
2023/08/24 10:52:19;;;;;;;6.85;5.50;;;;;;;22.83;100.00;101279.78;4997703;28;20030;-87
2023/08/24 10:54:48;;;;;;;13.32;10.77;;;;;;;22.87;100.00;101268.22;5001054;28;20034;-88
2023/08/24 10:57:34;;;;;;;13.55;8.57;;;;;;;22.93;100.00;101272.13;5005884;28;20026;-89
2023/08/24 11:00:11;;;;;;;12.38;7.88;;;;;;;22.96;100.00;101281.81;5012654;28;20034;-85
2023/08/24 11:02:50;;;;;;;18.70;9.98;;;;;;;23.13;100.00;101287.03;5000557;28;20035;-87
2023/08/24 11:05:29;;;;;;;14.93;10.40;;;;;;;23.19;100.00;101277.88;5001354;28;20034;-88
2023/08/24 11:08:05;;;;;;;14.43;9.57;;;;;;;23.27;100.00;101285.75;4996363;28;20069;-85
2023/08/24 11:10:48;;;;;;;17.17;11.65;;;;;;;23.29;100.00;101280.38;5005761;28;20053;-85
2023/08/24 11:13:16;;;;;;;14.00;9.18;;;;;;;23.29;100.00;101280.38;4996677;28;20056;-85
2023/08/24 11:15:46;;;;;;;12.68;9.05;;;;;;;23.27;100.00;101274.34;5002146;28;20034;-84
2023/08/24 11:18:26;;;;;;;11.82;8.88;;;;;;;23.31;100.00;101286.44;4994699;28;20030;-85